»·PEaware :: AAL1820 KLAS-KLAX

AAL1820 :: KLAS-KLAX

FLIGHT INFORMATION

Flight Status: Arrived
Operator:
American Airlines
More flights by this operator :: More flights under this callsign
Pilot: Kyle M. (9350)
Aircraft: Unknown
(B77L)
More flights by this aircraft type
Origin: KLAS McCarran Intl
United States
Destination: KLAX Los Angeles Intl
United States
More flights between these airports :: More routes between these airports
Route: BOACH8 RIKII SHTNR ANJLL4
File this flight plan on PilotEdge
Remarks: CptCanada - Youtube Livestreams!
Altitude:
(Current/Filed)
28,000ft
Speed:
(Current/Filed)
450kts
Departed: 26-Sep-18 12:48 PM
Arrived: 26-Sep-18 01:30 PM
Distance/Time
Traveled:
205nm/0:42
Distance/Time
To Go:
Arrived

Flight Plot

Page will automatically refresh every two minutes.

Flight plan parsing failed; only flown route is shown


Map Options




Map Legend


Flown Route
Filed Route
Departure Airport
Arrival Airport
Navaid (VOR, NDB)
Fix

Horizontal Profiles

Position Reports

Time Latitude Longitude Heading Altitude Ground
Speed
26-Sep-18 12:28 36.079846 -115.140520 57 2158ft 0kts
26-Sep-18 12:29 36.079846 -115.140520 57 2158ft 0kts
26-Sep-18 12:30 36.079846 -115.140520 57 2158ft 0kts
26-Sep-18 12:31 36.079846 -115.140520 57 2158ft 0kts
26-Sep-18 12:32 36.079846 -115.140520 57 2158ft 0kts
26-Sep-18 12:33 36.079846 -115.140520 57 2158ft 0kts
26-Sep-18 12:34 36.079846 -115.140520 57 2158ft 0kts
26-Sep-18 12:35 36.079846 -115.140520 57 2158ft 0kts
26-Sep-18 12:36 36.079846 -115.140520 57 2158ft 0kts
26-Sep-18 12:37 36.079846 -115.140520 57 2158ft 0kts
26-Sep-18 12:38 36.079846 -115.140520 57 2158ft 0kts
26-Sep-18 12:39 36.079846 -115.140520 57 2158ft 0kts
26-Sep-18 12:40 36.079773 -115.140661 57 2158ft 2kts
26-Sep-18 12:41 36.079612 -115.141335 116 2158ft 2kts
26-Sep-18 12:42 36.079999 -115.141629 181 2158ft 0kts
26-Sep-18 12:43 36.079998 -115.141630 181 2158ft 0kts
26-Sep-18 12:44 36.079176 -115.141637 180 2158ft 8kts
26-Sep-18 12:45 36.077507 -115.138656 89 2158ft 16kts
26-Sep-18 12:46 36.077510 -115.132586 89 2158ft 19kts
26-Sep-18 12:47 36.077514 -115.125849 89 2158ft 19kts
26-Sep-18 12:48 36.077397 -115.121551 130 2158ft 0kts
26-Sep-18 12:49 36.077392 -115.121545 130 2158ft 1kts
26-Sep-18 12:50 36.076404 -115.127502 270 2158ft 96kts
26-Sep-18 12:51 36.075441 -115.186326 268 4767ft 202kts
26-Sep-18 12:52 36.060165 -115.265447 221 7742ft 296kts
26-Sep-18 12:53 35.977570 -115.299037 195 11531ft 368kts
26-Sep-18 12:54 35.876294 -115.312787 188 17199ft 381kts
26-Sep-18 12:55 35.766484 -115.304622 177 19150ft 395kts
26-Sep-18 12:56 35.657122 -115.295610 184 19154ft 394kts
26-Sep-18 12:57 35.543464 -115.300272 187 24926ft 423kts
26-Sep-18 12:58 35.436967 -115.351806 212 28152ft 409kts
26-Sep-18 12:59 35.338786 -115.422975 212 28119ft 411kts
26-Sep-18 13:00 35.240413 -115.494243 212 28155ft 410kts
26-Sep-18 13:01 35.142248 -115.565306 214 28030ft 411kts
26-Sep-18 13:02 35.060451 -115.660220 227 28128ft 410kts
26-Sep-18 13:03 34.981701 -115.760569 227 28105ft 410kts
26-Sep-18 13:04 34.903007 -115.860718 227 28133ft 415kts
26-Sep-18 13:05 34.826347 -115.957940 227 28131ft 437kts
26-Sep-18 13:06 34.743651 -116.062957 228 28109ft 411kts
26-Sep-18 13:07 34.665338 -116.162656 228 28129ft 410kts
26-Sep-18 13:08 34.586500 -116.262710 228 28086ft 410kts
26-Sep-18 13:09 34.507902 -116.362162 228 28114ft 404kts
26-Sep-18 13:10 34.430187 -116.460575 231 27604ft 404kts
26-Sep-18 13:11 34.375997 -116.576597 245 25227ft 401kts
26-Sep-18 13:12 34.330797 -116.686063 246 23766ft 382kts
26-Sep-18 13:13 34.285502 -116.798786 246 22192ft 367kts
26-Sep-18 13:14 34.241331 -116.908277 246 20622ft 356kts
26-Sep-18 13:15 34.202465 -117.015895 254 19128ft 347kts
26-Sep-18 13:16 34.172542 -117.125727 254 17654ft 341kts
26-Sep-18 13:17 34.143031 -117.233398 254 16185ft 335kts
26-Sep-18 13:18 34.113719 -117.339741 254 14406ft 335kts
26-Sep-18 13:19 34.086431 -117.445615 256 12889ft 325kts
26-Sep-18 13:20 34.064700 -117.549114 260 11497ft 315kts
26-Sep-18 13:21 34.047588 -117.650833 257 10164ft 304kts
26-Sep-18 13:22 34.030743 -117.749526 256 8887ft 298kts
26-Sep-18 13:23 34.014497 -117.844197 257 7661ft 279kts
26-Sep-18 13:24 33.998982 -117.934741 259 6505ft 275kts
26-Sep-18 13:25 33.983292 -118.024151 255 5336ft 272kts
26-Sep-18 13:26 33.966690 -118.109340 260 4234ft 239kts
26-Sep-18 13:27 33.957636 -118.185622 261 3463ft 210kts
26-Sep-18 13:28 33.951386 -118.246292 259 2396ft 158kts
26-Sep-18 13:29 33.946393 -118.294303 261 1627ft 139kts
26-Sep-18 13:30 33.941454 -118.341057 263 831ft 142kts
26-Sep-18 13:31 33.936868 -118.387457 263 159ft 138kts
26-Sep-18 13:32 33.935225 -118.411333 293 144ft 17kts
26-Sep-18 13:33 33.937030 -118.412735 0 144ft 12kts
26-Sep-18 13:34 33.938369 -118.411989 72 144ft 12kts
26-Sep-18 13:35 33.938931 -118.406643 82 144ft 18kts
26-Sep-18 13:36 33.939813 -118.403686 313 144ft 1kts

Navigation Log

Ident Type
Flight plan parsing failed, navigation log unavailable